sensor_id;sensor_type;location;lat;lon;timestamp;temperature;humidity
21037;DHT22;10677;50.942;4.028;2024-01-25T00:01:08;10.30;99.90
21037;DHT22;10677;50.942;4.028;2024-01-25T00:03:34;10.30;99.90
21037;DHT22;10677;50.942;4.028;2024-01-25T00:06:00;10.20;99.90
21037;DHT22;10677;50.942;4.028;2024-01-25T00:08:26;10.00;99.90
21037;DHT22;10677;50.942;4.028;2024-01-25T00:10:51;9.90;99.90
21037;DHT22;10677;50.942;4.028;2024-01-25T00:13:17;9.90;99.90
21037;DHT22;10677;50.942;4.028;2024-01-25T00:15:43;10.00;99.90
21037;DHT22;10677;50.942;4.028;2024-01-25T00:18:08;10.00;99.90
21037;DHT22;10677;50.942;4.028;2024-01-25T00:20:34;9.80;99.90
21037;DHT22;10677;50.942;4.028;2024-01-25T00:22:59;9.70;99.90
21037;DHT22;10677;50.942;4.028;2024-01-25T00:25:25;9.80;99.90
21037;DHT22;10677;50.942;4.028;2024-01-25T00:27:51;9.60;99.90
21037;DHT22;10677;50.942;4.028;2024-01-25T00:30:16;9.70;99.90
21037;DHT22;10677;50.942;4.028;2024-01-25T00:32:42;9.80;99.90
21037;DHT22;10677;50.942;4.028;2024-01-25T00:35:08;9.80;99.90
21037;DHT22;10677;50.942;4.028;2024-01-25T00:37:36;9.80;99.90
21037;DHT22;10677;50.942;4.028;2024-01-25T00:40:02;9.70;99.90
21037;DHT22;10677;50.942;4.028;2024-01-25T00:42:29;9.80;99.90
21037;DHT22;10677;50.942;4.028;2024-01-25T00:44:56;9.70;99.90
21037;DHT22;10677;50.942;4.028;2024-01-25T00:47:22;9.70;99.90
21037;DHT22;10677;50.942;4.028;2024-01-25T00:49:48;9.80;99.90
21037;DHT22;10677;50.942;4.028;2024-01-25T00:52:14;9.70;99.90
21037;DHT22;10677;50.942;4.028;2024-01-25T00:54:40;9.70;99.90
21037;DHT22;10677;50.942;4.028;2024-01-25T00:57:06;9.80;99.90
21037;DHT22;10677;50.942;4.028;2024-01-25T00:59:32;9.80;99.90
21037;DHT22;10677;50.942;4.028;2024-01-25T01:01:58;9.60;99.90
21037;DHT22;10677;50.942;4.028;2024-01-25T01:04:25;9.70;99.90
21037;DHT22;10677;50.942;4.028;2024-01-25T01:06:53;9.70;99.90
21037;DHT22;10677;50.942;4.028;2024-01-25T01:09:19;9.80;99.90
21037;DHT22;10677;50.942;4.028;2024-01-25T01:11:44;9.80;99.90
21037;DHT22;10677;50.942;4.028;2024-01-25T01:14:10;9.70;99.90
21037;DHT22;10677;50.942;4.028;2024-01-25T01:16:35;9.70;99.90
21037;DHT22;10677;50.942;4.028;2024-01-25T01:19:01;9.60;99.90
21037;DHT22;10677;50.942;4.028;2024-01-25T01:21:32;9.50;99.90
21037;DHT22;10677;50.942;4.028;2024-01-25T01:23:58;9.50;99.90
21037;DHT22;10677;50.942;4.028;2024-01-25T01:26:24;9.40;99.90
21037;DHT22;10677;50.942;4.028;2024-01-25T01:28:49;9.40;99.90
21037;DHT22;10677;50.942;4.028;2024-01-25T01:31:15;9.40;99.90
21037;DHT22;10677;50.942;4.028;2024-01-25T01:33:40;9.40;99.90
21037;DHT22;10677;50.942;4.028;2024-01-25T01:36:06;9.40;99.90
21037;DHT22;10677;50.942;4.028;2024-01-25T01:38:32;9.40;99.90
21037;DHT22;10677;50.942;4.028;2024-01-25T01:40:58;9.40;99.90
21037;DHT22;10677;50.942;4.028;2024-01-25T01:43:23;9.30;99.90
21037;DHT22;10677;50.942;4.028;2024-01-25T01:45:49;9.20;99.90
21037;DHT22;10677;50.942;4.028;2024-01-25T01:48:16;9.20;99.90
21037;DHT22;10677;50.942;4.028;2024-01-25T01:50:45;9.10;99.90
21037;DHT22;10677;50.942;4.028;2024-01-25T01:53:12;9.20;99.90
21037;DHT22;10677;50.942;4.028;2024-01-25T01:55:39;9.20;99.90
21037;DHT22;10677;50.942;4.028;2024-01-25T01:58:05;9.10;99.90
21037;DHT22;10677;50.942;4.028;2024-01-25T02:00:32;9.10;99.90
21037;DHT22;10677;50.942;4.028;2024-01-25T02:02:59;9.00;99.90
21037;DHT22;10677;50.942;4.028;2024-01-25T02:05:24;9.00;99.90
21037;DHT22;10677;50.942;4.028;2024-01-25T02:07:50;9.00;99.90
21037;DHT22;10677;50.942;4.028;2024-01-25T02:10:18;9.10;99.90
21037;DHT22;10677;50.942;4.028;2024-01-25T02:12:43;9.00;99.90
21037;DHT22;10677;50.942;4.028;2024-01-25T02:15:09;9.00;99.90
21037;DHT22;10677;50.942;4.028;2024-01-25T02:17:35;8.90;99.90
21037;DHT22;10677;50.942;4.028;2024-01-25T02:20:01;8.80;99.90
21037;DHT22;10677;50.942;4.028;2024-01-25T02:22:28;8.80;99.90
21037;DHT22;10677;50.942;4.028;2024-01-25T02:24:54;8.90;99.90
21037;DHT22;10677;50.942;4.028;2024-01-25T02:27:20;8.90;99.90
21037;DHT22;10677;50.942;4.028;2024-01-25T02:29:45;8.90;99.90
21037;DHT22;10677;50.942;4.028;2024-01-25T02:32:11;9.00;99.90
21037;DHT22;10677;50.942;4.028;2024-01-25T02:34:37;9.00;99.90
21037;DHT22;10677;50.942;4.028;2024-01-25T02:37:02;9.00;99.90
21037;DHT22;10677;50.942;4.028;2024-01-25T02:39:28;9.00;99.90
21037;DHT22;10677;50.942;4.028;2024-01-25T02:41:54;9.00;99.90
21037;DHT22;10677;50.942;4.028;2024-01-25T02:44:20;9.00;99.90
21037;DHT22;10677;50.942;4.028;2024-01-25T02:46:45;8.90;99.90
21037;DHT22;10677;50.942;4.028;2024-01-25T02:49:12;8.90;99.90
21037;DHT22;10677;50.942;4.028;2024-01-25T02:51:38;8.80;99.90
21037;DHT22;10677;50.942;4.028;2024-01-25T02:54:03;8.80;99.90
21037;DHT22;10677;50.942;4.028;2024-01-25T02:56:29;8.70;99.90
21037;DHT22;10677;50.942;4.028;2024-01-25T02:59:00;8.60;99.90
21037;DHT22;10677;50.942;4.028;2024-01-25T03:01:26;8.70;99.90
21037;DHT22;10677;50.942;4.028;2024-01-25T03:03:53;8.80;99.90
21037;DHT22;10677;50.942;4.028;2024-01-25T03:06:18;8.70;99.90
21037;DHT22;10677;50.942;4.028;2024-01-25T03:08:44;8.70;99.90
21037;DHT22;10677;50.942;4.028;2024-01-25T03:11:10;8.60;99.90
21037;DHT22;10677;50.942;4.028;2024-01-25T03:13:35;8.60;99.90
21037;DHT22;10677;50.942;4.028;2024-01-25T03:16:01;8.60;99.90
21037;DHT22;10677;50.942;4.028;2024-01-25T03:18:27;8.70;99.90
21037;DHT22;10677;50.942;4.028;2024-01-25T03:20:53;8.70;99.90
21037;DHT22;10677;50.942;4.028;2024-01-25T03:23:19;8.60;99.90
21037;DHT22;10677;50.942;4.028;2024-01-25T03:25:44;8.50;99.90
21037;DHT22;10677;50.942;4.028;2024-01-25T03:28:10;8.50;99.90
21037;DHT22;10677;50.942;4.028;2024-01-25T03:30:38;8.50;99.90
21037;DHT22;10677;50.942;4.028;2024-01-25T03:33:04;8.50;99.90
21037;DHT22;10677;50.942;4.028;2024-01-25T03:35:29;8.50;99.90
21037;DHT22;10677;50.942;4.028;2024-01-25T03:37:55;8.40;99.90
21037;DHT22;10677;50.942;4.028;2024-01-25T03:40:21;8.30;99.90
21037;DHT22;10677;50.942;4.028;2024-01-25T03:42:46;8.30;99.90
21037;DHT22;10677;50.942;4.028;2024-01-25T03:45:12;8.40;99.90
21037;DHT22;10677;50.942;4.028;2024-01-25T03:47:38;8.30;99.90
21037;DHT22;10677;50.942;4.028;2024-01-25T03:50:04;8.30;99.90
21037;DHT22;10677;50.942;4.028;2024-01-25T03:52:29;8.50;99.90
21037;DHT22;10677;50.942;4.028;2024-01-25T03:54:55;8.50;99.90
21037;DHT22;10677;50.942;4.028;2024-01-25T03:57:21;8.50;99.90
21037;DHT22;10677;50.942;4.028;2024-01-25T03:59:47;8.50;99.90
21037;DHT22;10677;50.942;4.028;2024-01-25T04:02:12;8.50;99.90
21037;DHT22;10677;50.942;4.028;2024-01-25T04:04:38;8.50;99.90
21037;DHT22;10677;50.942;4.028;2024-01-25T04:07:04;8.50;99.90
21037;DHT22;10677;50.942;4.028;2024-01-25T04:09:29;8.50;99.90
21037;DHT22;10677;50.942;4.028;2024-01-25T04:11:56;8.50;99.90
21037;DHT22;10677;50.942;4.028;2024-01-25T04:14:21;8.50;99.90
21037;DHT22;10677;50.942;4.028;2024-01-25T04:16:47;8.40;99.90
21037;DHT22;10677;50.942;4.028;2024-01-25T04:19:13;8.40;99.90
21037;DHT22;10677;50.942;4.028;2024-01-25T04:21:38;8.40;99.90
21037;DHT22;10677;50.942;4.028;2024-01-25T04:24:04;8.40;99.90
21037;DHT22;10677;50.942;4.028;2024-01-25T04:26:30;8.20;99.90
21037;DHT22;10677;50.942;4.028;2024-01-25T04:28:56;8.20;99.90
21037;DHT22;10677;50.942;4.028;2024-01-25T04:31:21;8.20;99.90
21037;DHT22;10677;50.942;4.028;2024-01-25T04:33:47;8.20;99.90
21037;DHT22;10677;50.942;4.028;2024-01-25T04:36:13;8.40;99.90
21037;DHT22;10677;50.942;4.028;2024-01-25T04:38:39;8.40;99.90
21037;DHT22;10677;50.942;4.028;2024-01-25T04:41:04;8.40;99.90
21037;DHT22;10677;50.942;4.028;2024-01-25T04:43:34;8.30;99.90
21037;DHT22;10677;50.942;4.028;2024-01-25T04:46:01;8.30;99.90
21037;DHT22;10677;50.942;4.028;2024-01-25T04:48:26;8.30;99.90
21037;DHT22;10677;50.942;4.028;2024-01-25T04:50:52;8.20;99.90
21037;DHT22;10677;50.942;4.028;2024-01-25T04:53:19;8.20;99.90
21037;DHT22;10677;50.942;4.028;2024-01-25T04:55:45;8.00;99.90
21037;DHT22;10677;50.942;4.028;2024-01-25T04:58:10;7.90;99.90
21037;DHT22;10677;50.942;4.028;2024-01-25T05:00:36;8.00;99.90
21037;DHT22;10677;50.942;4.028;2024-01-25T05:03:04;8.00;99.90
21037;DHT22;10677;50.942;4.028;2024-01-25T05:05:30;8.00;99.90
21037;DHT22;10677;50.942;4.028;2024-01-25T05:07:56;7.90;99.90
21037;DHT22;10677;50.942;4.028;2024-01-25T05:10:21;7.80;99.90
21037;DHT22;10677;50.942;4.028;2024-01-25T05:12:48;7.80;99.90
21037;DHT22;10677;50.942;4.028;2024-01-25T05:15:14;7.70;99.90
21037;DHT22;10677;50.942;4.028;2024-01-25T05:17:40;7.80;99.90
21037;DHT22;10677;50.942;4.028;2024-01-25T05:20:06;7.90;99.90
21037;DHT22;10677;50.942;4.028;2024-01-25T05:22:32;7.80;99.90
21037;DHT22;10677;50.942;4.028;2024-01-25T05:24:57;7.80;99.90
21037;DHT22;10677;50.942;4.028;2024-01-25T05:27:23;7.70;99.90
21037;DHT22;10677;50.942;4.028;2024-01-25T05:29:49;7.70;99.90
21037;DHT22;10677;50.942;4.028;2024-01-25T05:32:14;7.70;99.90
21037;DHT22;10677;50.942;4.028;2024-01-25T05:34:40;7.70;99.90
21037;DHT22;10677;50.942;4.028;2024-01-25T05:37:06;7.70;99.90
21037;DHT22;10677;50.942;4.028;2024-01-25T05:39:32;7.70;99.90
21037;DHT22;10677;50.942;4.028;2024-01-25T05:41:58;7.70;99.90
21037;DHT22;10677;50.942;4.028;2024-01-25T05:44:23;7.70;99.90
21037;DHT22;10677;50.942;4.028;2024-01-25T05:46:49;7.60;99.90
21037;DHT22;10677;50.942;4.028;2024-01-25T05:49:14;7.60;99.90
21037;DHT22;10677;50.942;4.028;2024-01-25T05:51:41;7.50;99.90
21037;DHT22;10677;50.942;4.028;2024-01-25T05:54:07;7.50;99.90
21037;DHT22;10677;50.942;4.028;2024-01-25T05:56:32;7.50;99.90
21037;DHT22;10677;50.942;4.028;2024-01-25T05:58:58;7.50;99.90
21037;DHT22;10677;50.942;4.028;2024-01-25T06:01:24;7.50;99.90
21037;DHT22;10677;50.942;4.028;2024-01-25T06:03:50;7.50;99.90
21037;DHT22;10677;50.942;4.028;2024-01-25T06:06:15;7.40;99.90
21037;DHT22;10677;50.942;4.028;2024-01-25T06:08:41;7.40;99.90
21037;DHT22;10677;50.942;4.028;2024-01-25T06:11:07;7.40;99.90
21037;DHT22;10677;50.942;4.028;2024-01-25T06:13:34;7.40;99.90
21037;DHT22;10677;50.942;4.028;2024-01-25T06:15:59;7.30;99.90
21037;DHT22;10677;50.942;4.028;2024-01-25T06:18:26;7.50;99.90
21037;DHT22;10677;50.942;4.028;2024-01-25T06:20:52;7.50;99.90
21037;DHT22;10677;50.942;4.028;2024-01-25T06:23:17;7.60;99.90
21037;DHT22;10677;50.942;4.028;2024-01-25T06:25:43;7.60;99.90
21037;DHT22;10677;50.942;4.028;2024-01-25T06:28:09;7.60;99.90
21037;DHT22;10677;50.942;4.028;2024-01-25T06:30:34;7.60;99.90
21037;DHT22;10677;50.942;4.028;2024-01-25T06:33:00;7.70;99.90
21037;DHT22;10677;50.942;4.028;2024-01-25T06:35:26;7.60;99.90
21037;DHT22;10677;50.942;4.028;2024-01-25T06:37:51;7.60;99.90
21037;DHT22;10677;50.942;4.028;2024-01-25T06:40:17;7.60;99.90
21037;DHT22;10677;50.942;4.028;2024-01-25T06:42:43;7.50;99.90
21037;DHT22;10677;50.942;4.028;2024-01-25T06:45:10;7.50;99.90
21037;DHT22;10677;50.942;4.028;2024-01-25T06:47:36;7.50;99.90
21037;DHT22;10677;50.942;4.028;2024-01-25T06:50:01;7.50;99.90
21037;DHT22;10677;50.942;4.028;2024-01-25T06:52:28;7.50;99.90
21037;DHT22;10677;50.942;4.028;2024-01-25T06:54:54;7.50;99.90
21037;DHT22;10677;50.942;4.028;2024-01-25T06:57:20;7.50;99.90
21037;DHT22;10677;50.942;4.028;2024-01-25T06:59:45;7.50;99.90
21037;DHT22;10677;50.942;4.028;2024-01-25T07:02:13;7.40;99.90
21037;DHT22;10677;50.942;4.028;2024-01-25T07:04:39;7.40;99.90
21037;DHT22;10677;50.942;4.028;2024-01-25T07:07:06;7.50;99.90
21037;DHT22;10677;50.942;4.028;2024-01-25T07:09:32;7.50;99.90
21037;DHT22;10677;50.942;4.028;2024-01-25T07:11:57;7.50;99.90
21037;DHT22;10677;50.942;4.028;2024-01-25T07:14:24;7.50;99.90
21037;DHT22;10677;50.942;4.028;2024-01-25T07:16:50;7.40;99.90
21037;DHT22;10677;50.942;4.028;2024-01-25T07:19:15;7.40;99.90
21037;DHT22;10677;50.942;4.028;2024-01-25T07:21:41;7.20;99.90
21037;DHT22;10677;50.942;4.028;2024-01-25T07:24:11;7.10;99.90
21037;DHT22;10677;50.942;4.028;2024-01-25T07:26:37;6.90;99.90
21037;DHT22;10677;50.942;4.028;2024-01-25T07:29:03;6.90;99.90
21037;DHT22;10677;50.942;4.028;2024-01-25T07:31:28;6.90;99.90
21037;DHT22;10677;50.942;4.028;2024-01-25T07:33:54;7.00;99.90
21037;DHT22;10677;50.942;4.028;2024-01-25T07:36:20;7.00;99.90
21037;DHT22;10677;50.942;4.028;2024-01-25T07:38:46;7.00;99.90
21037;DHT22;10677;50.942;4.028;2024-01-25T07:41:13;7.10;99.90
21037;DHT22;10677;50.942;4.028;2024-01-25T07:43:38;7.20;99.90
21037;DHT22;10677;50.942;4.028;2024-01-25T07:46:04;7.00;99.90
21037;DHT22;10677;50.942;4.028;2024-01-25T07:48:30;7.10;99.90
21037;DHT22;10677;50.942;4.028;2024-01-25T07:50:56;7.10;99.90
21037;DHT22;10677;50.942;4.028;2024-01-25T07:53:22;7.20;99.90
21037;DHT22;10677;50.942;4.028;2024-01-25T07:55:48;7.10;99.90
21037;DHT22;10677;50.942;4.028;2024-01-25T07:58:17;7.20;99.90
21037;DHT22;10677;50.942;4.028;2024-01-25T08:00:43;7.30;99.90
21037;DHT22;10677;50.942;4.028;2024-01-25T08:03:09;7.30;99.90
21037;DHT22;10677;50.942;4.028;2024-01-25T08:05:35;7.30;99.90
21037;DHT22;10677;50.942;4.028;2024-01-25T08:08:01;7.30;99.90
21037;DHT22;10677;50.942;4.028;2024-01-25T08:10:26;7.20;99.90
21037;DHT22;10677;50.942;4.028;2024-01-25T08:12:52;7.20;99.90
21037;DHT22;10677;50.942;4.028;2024-01-25T08:15:19;7.30;99.90
21037;DHT22;10677;50.942;4.028;2024-01-25T08:17:44;7.30;99.90
21037;DHT22;10677;50.942;4.028;2024-01-25T08:20:11;7.20;99.90
21037;DHT22;10677;50.942;4.028;2024-01-25T08:22:40;7.20;99.90
21037;DHT22;10677;50.942;4.028;2024-01-25T08:25:08;7.40;99.90
21037;DHT22;10677;50.942;4.028;2024-01-25T08:28:09;7.40;99.90
21037;DHT22;10677;50.942;4.028;2024-01-25T08:30:35;7.30;99.90
21037;DHT22;10677;50.942;4.028;2024-01-25T08:33:01;7.40;99.90
21037;DHT22;10677;50.942;4.028;2024-01-25T08:35:26;7.30;99.90
21037;DHT22;10677;50.942;4.028;2024-01-25T08:37:52;7.30;99.90
21037;DHT22;10677;50.942;4.028;2024-01-25T08:40:18;7.30;99.90
21037;DHT22;10677;50.942;4.028;2024-01-25T08:42:43;7.30;99.90
21037;DHT22;10677;50.942;4.028;2024-01-25T08:45:10;7.30;99.90
21037;DHT22;10677;50.942;4.028;2024-01-25T08:47:36;7.40;99.90
21037;DHT22;10677;50.942;4.028;2024-01-25T08:50:02;7.60;99.90
21037;DHT22;10677;50.942;4.028;2024-01-25T08:52:29;7.70;99.90
21037;DHT22;10677;50.942;4.028;2024-01-25T08:54:58;7.70;99.90
21037;DHT22;10677;50.942;4.028;2024-01-25T08:57:23;7.90;99.90
21037;DHT22;10677;50.942;4.028;2024-01-25T08:59:49;8.10;99.90
21037;DHT22;10677;50.942;4.028;2024-01-25T09:02:15;8.20;99.90
21037;DHT22;10677;50.942;4.028;2024-01-25T09:04:41;8.20;99.90
21037;DHT22;10677;50.942;4.028;2024-01-25T09:07:08;8.20;99.90
21037;DHT22;10677;50.942;4.028;2024-01-25T09:09:34;8.20;99.90
21037;DHT22;10677;50.942;4.028;2024-01-25T09:12:00;8.30;99.90
21037;DHT22;10677;50.942;4.028;2024-01-25T09:14:26;8.30;99.90
21037;DHT22;10677;50.942;4.028;2024-01-25T09:16:51;8.40;99.90
21037;DHT22;10677;50.942;4.028;2024-01-25T09:19:17;8.50;99.90
21037;DHT22;10677;50.942;4.028;2024-01-25T09:21:43;8.50;99.90
21037;DHT22;10677;50.942;4.028;2024-01-25T09:24:11;8.50;99.90
21037;DHT22;10677;50.942;4.028;2024-01-25T09:26:37;8.50;99.90
21037;DHT22;10677;50.942;4.028;2024-01-25T09:29:04;8.70;99.90
21037;DHT22;10677;50.942;4.028;2024-01-25T09:31:30;8.80;99.90
21037;DHT22;10677;50.942;4.028;2024-01-25T09:33:56;8.90;99.90
21037;DHT22;10677;50.942;4.028;2024-01-25T09:36:24;8.90;99.90
21037;DHT22;10677;50.942;4.028;2024-01-25T09:38:50;9.10;99.90
21037;DHT22;10677;50.942;4.028;2024-01-25T09:41:16;9.30;99.90
21037;DHT22;10677;50.942;4.028;2024-01-25T09:43:42;9.30;99.90
21037;DHT22;10677;50.942;4.028;2024-01-25T09:46:13;9.40;99.90
21037;DHT22;10677;50.942;4.028;2024-01-25T09:48:39;9.40;99.90
21037;DHT22;10677;50.942;4.028;2024-01-25T09:51:05;9.40;99.90
21037;DHT22;10677;50.942;4.028;2024-01-25T09:53:32;9.40;99.90
21037;DHT22;10677;50.942;4.028;2024-01-25T09:56:11;9.40;99.90
21037;DHT22;10677;50.942;4.028;2024-01-25T09:58:41;9.40;99.90
21037;DHT22;10677;50.942;4.028;2024-01-25T10:01:15;9.30;99.90
21037;DHT22;10677;50.942;4.028;2024-01-25T10:03:45;9.30;99.90
21037;DHT22;10677;50.942;4.028;2024-01-25T10:06:20;9.20;99.90
21037;DHT22;10677;50.942;4.028;2024-01-25T10:09:14;9.20;99.90
21037;DHT22;10677;50.942;4.028;2024-01-25T10:12:08;9.30;99.90
21037;DHT22;10677;50.942;4.028;2024-01-25T10:14:34;9.40;99.90
21037;DHT22;10677;50.942;4.028;2024-01-25T10:17:03;9.40;99.90
21037;DHT22;10677;50.942;4.028;2024-01-25T10:19:28;9.50;99.90
21037;DHT22;10677;50.942;4.028;2024-01-25T10:21:55;9.50;99.90
21037;DHT22;10677;50.942;4.028;2024-01-25T10:24:22;9.60;99.90
21037;DHT22;10677;50.942;4.028;2024-01-25T10:26:49;9.70;99.90
21037;DHT22;10677;50.942;4.028;2024-01-25T10:29:15;9.80;99.90
21037;DHT22;10677;50.942;4.028;2024-01-25T10:31:41;9.90;99.90
21037;DHT22;10677;50.942;4.028;2024-01-25T10:34:13;10.00;99.90
21037;DHT22;10677;50.942;4.028;2024-01-25T10:36:40;10.00;99.90
21037;DHT22;10677;50.942;4.028;2024-01-25T10:39:08;10.00;99.90
21037;DHT22;10677;50.942;4.028;2024-01-25T10:41:34;10.10;99.90
21037;DHT22;10677;50.942;4.028;2024-01-25T10:44:00;10.10;99.90
21037;DHT22;10677;50.942;4.028;2024-01-25T10:46:28;10.20;99.90
21037;DHT22;10677;50.942;4.028;2024-01-25T10:48:57;10.30;99.90
21037;DHT22;10677;50.942;4.028;2024-01-25T10:51:25;10.40;99.90
21037;DHT22;10677;50.942;4.028;2024-01-25T10:53:57;10.40;99.90
21037;DHT22;10677;50.942;4.028;2024-01-25T10:56:27;10.30;99.90
21037;DHT22;10677;50.942;4.028;2024-01-25T10:58:53;10.40;99.90
21037;DHT22;10677;50.942;4.028;2024-01-25T11:01:19;10.40;99.90
21037;DHT22;10677;50.942;4.028;2024-01-25T11:03:52;10.60;99.90
21037;DHT22;10677;50.942;4.028;2024-01-25T11:06:21;10.60;99.90
21037;DHT22;10677;50.942;4.028;2024-01-25T11:08:48;10.60;99.90
21037;DHT22;10677;50.942;4.028;2024-01-25T11:11:14;10.60;99.90
21037;DHT22;10677;50.942;4.028;2024-01-25T11:13:49;10.70;99.90
21037;DHT22;10677;50.942;4.028;2024-01-25T11:16:27;10.70;99.90
21037;DHT22;10677;50.942;4.028;2024-01-25T11:18:58;10.80;99.90
21037;DHT22;10677;50.942;4.028;2024-01-25T11:24:24;10.90;99.90
21037;DHT22;10677;50.942;4.028;2024-01-25T11:26:54;10.90;99.90
21037;DHT22;10677;50.942;4.028;2024-01-25T11:29:21;11.00;99.90
21037;DHT22;10677;50.942;4.028;2024-01-25T11:31:51;11.00;99.90
21037;DHT22;10677;50.942;4.028;2024-01-25T11:34:17;10.90;99.90
21037;DHT22;10677;50.942;4.028;2024-01-25T11:36:47;11.00;99.90
21037;DHT22;10677;50.942;4.028;2024-01-25T11:39:15;11.10;99.90
21037;DHT22;10677;50.942;4.028;2024-01-25T11:41:45;11.10;99.90
21037;DHT22;10677;50.942;4.028;2024-01-25T11:44:13;11.10;99.90
21037;DHT22;10677;50.942;4.028;2024-01-25T11:46:39;11.10;99.90
21037;DHT22;10677;50.942;4.028;2024-01-25T11:49:06;11.10;99.90
21037;DHT22;10677;50.942;4.028;2024-01-25T11:51:34;11.10;99.90
21037;DHT22;10677;50.942;4.028;2024-01-25T11:54:00;11.20;99.90
21037;DHT22;10677;50.942;4.028;2024-01-25T11:56:31;11.20;99.90
21037;DHT22;10677;50.942;4.028;2024-01-25T11:59:01;11.20;99.90
21037;DHT22;10677;50.942;4.028;2024-01-25T12:01:30;11.20;99.90
21037;DHT22;10677;50.942;4.028;2024-01-25T12:03:56;11.30;99.90
21037;DHT22;10677;50.942;4.028;2024-01-25T12:06:24;11.30;99.90
21037;DHT22;10677;50.942;4.028;2024-01-25T12:08:49;11.30;99.90
21037;DHT22;10677;50.942;4.028;2024-01-25T12:11:18;11.40;99.90
21037;DHT22;10677;50.942;4.028;2024-01-25T12:13:44;11.50;99.90
21037;DHT22;10677;50.942;4.028;2024-01-25T12:16:15;11.50;99.90
21037;DHT22;10677;50.942;4.028;2024-01-25T12:18:42;11.50;99.90
21037;DHT22;10677;50.942;4.028;2024-01-25T12:21:08;11.50;99.90
21037;DHT22;10677;50.942;4.028;2024-01-25T12:23:39;11.40;99.90
21037;DHT22;10677;50.942;4.028;2024-01-25T12:26:09;11.50;99.90
21037;DHT22;10677;50.942;4.028;2024-01-25T12:28:35;11.50;99.90
21037;DHT22;10677;50.942;4.028;2024-01-25T12:31:03;11.50;99.90
21037;DHT22;10677;50.942;4.028;2024-01-25T12:33:29;11.40;99.90
21037;DHT22;10677;50.942;4.028;2024-01-25T12:35:58;11.40;99.90
21037;DHT22;10677;50.942;4.028;2024-01-25T12:38:24;11.30;99.90
21037;DHT22;10677;50.942;4.028;2024-01-25T12:40:51;11.30;99.90
21037;DHT22;10677;50.942;4.028;2024-01-25T12:43:18;11.40;99.90
21037;DHT22;10677;50.942;4.028;2024-01-25T12:45:46;11.30;99.90
21037;DHT22;10677;50.942;4.028;2024-01-25T12:48:13;11.30;99.90
21037;DHT22;10677;50.942;4.028;2024-01-25T12:50:39;11.40;99.90
21037;DHT22;10677;50.942;4.028;2024-01-25T12:53:05;11.40;99.90
21037;DHT22;10677;50.942;4.028;2024-01-25T12:55:33;11.50;99.90
21037;DHT22;10677;50.942;4.028;2024-01-25T12:58:00;11.60;99.90
21037;DHT22;10677;50.942;4.028;2024-01-25T13:00:25;11.60;99.90
21037;DHT22;10677;50.942;4.028;2024-01-25T13:02:51;11.70;99.90
21037;DHT22;10677;50.942;4.028;2024-01-25T13:05:21;11.70;99.90
21037;DHT22;10677;50.942;4.028;2024-01-25T13:07:47;11.80;99.90
21037;DHT22;10677;50.942;4.028;2024-01-25T13:10:13;11.80;99.90
21037;DHT22;10677;50.942;4.028;2024-01-25T13:12:41;11.80;99.90
21037;DHT22;10677;50.942;4.028;2024-01-25T13:15:07;11.80;99.90
21037;DHT22;10677;50.942;4.028;2024-01-25T13:17:37;11.80;99.90
21037;DHT22;10677;50.942;4.028;2024-01-25T13:20:03;11.80;99.90
21037;DHT22;10677;50.942;4.028;2024-01-25T13:22:32;11.80;99.90
21037;DHT22;10677;50.942;4.028;2024-01-25T13:24:59;11.90;99.90
21037;DHT22;10677;50.942;4.028;2024-01-25T13:27:25;12.00;99.90
21037;DHT22;10677;50.942;4.028;2024-01-25T13:29:51;12.10;99.90
21037;DHT22;10677;50.942;4.028;2024-01-25T13:32:17;12.10;99.90
21037;DHT22;10677;50.942;4.028;2024-01-25T13:34:42;12.10;99.90
21037;DHT22;10677;50.942;4.028;2024-01-25T13:37:08;12.20;99.90
21037;DHT22;10677;50.942;4.028;2024-01-25T13:39:33;12.30;99.90
21037;DHT22;10677;50.942;4.028;2024-01-25T13:41:59;12.40;99.90
21037;DHT22;10677;50.942;4.028;2024-01-25T13:44:25;12.30;99.90
21037;DHT22;10677;50.942;4.028;2024-01-25T13:46:50;12.40;99.90
21037;DHT22;10677;50.942;4.028;2024-01-25T13:49:16;12.40;99.90
21037;DHT22;10677;50.942;4.028;2024-01-25T13:51:43;12.40;99.90
21037;DHT22;10677;50.942;4.028;2024-01-25T13:54:10;12.30;99.90
21037;DHT22;10677;50.942;4.028;2024-01-25T13:56:36;12.30;99.90
21037;DHT22;10677;50.942;4.028;2024-01-25T13:59:01;12.30;99.90
21037;DHT22;10677;50.942;4.028;2024-01-25T14:01:27;12.40;99.90
21037;DHT22;10677;50.942;4.028;2024-01-25T14:03:53;12.30;99.90
21037;DHT22;10677;50.942;4.028;2024-01-25T14:06:22;12.20;99.90
21037;DHT22;10677;50.942;4.028;2024-01-25T14:08:48;12.10;99.90
21037;DHT22;10677;50.942;4.028;2024-01-25T14:11:16;12.10;99.90
21037;DHT22;10677;50.942;4.028;2024-01-25T14:13:42;12.00;99.90
21037;DHT22;10677;50.942;4.028;2024-01-25T14:16:08;12.10;99.90
21037;DHT22;10677;50.942;4.028;2024-01-25T14:18:41;12.00;99.90
21037;DHT22;10677;50.942;4.028;2024-01-25T14:21:07;12.10;99.90
21037;DHT22;10677;50.942;4.028;2024-01-25T14:23:32;12.10;99.90
21037;DHT22;10677;50.942;4.028;2024-01-25T14:25:58;12.10;99.90
21037;DHT22;10677;50.942;4.028;2024-01-25T14:28:24;12.10;99.90
21037;DHT22;10677;50.942;4.028;2024-01-25T14:30:53;12.10;99.90
21037;DHT22;10677;50.942;4.028;2024-01-25T14:33:19;12.10;99.90
21037;DHT22;10677;50.942;4.028;2024-01-25T14:35:45;12.10;99.90
21037;DHT22;10677;50.942;4.028;2024-01-25T14:38:11;12.00;99.90
21037;DHT22;10677;50.942;4.028;2024-01-25T14:40:36;12.00;99.90
21037;DHT22;10677;50.942;4.028;2024-01-25T14:43:04;12.00;99.90
21037;DHT22;10677;50.942;4.028;2024-01-25T14:45:30;12.10;99.90
21037;DHT22;10677;50.942;4.028;2024-01-25T14:47:59;12.10;99.90
21037;DHT22;10677;50.942;4.028;2024-01-25T14:50:24;12.10;99.90
21037;DHT22;10677;50.942;4.028;2024-01-25T14:52:50;12.00;99.90
21037;DHT22;10677;50.942;4.028;2024-01-25T14:55:16;12.10;99.90
21037;DHT22;10677;50.942;4.028;2024-01-25T14:57:41;12.20;99.90
21037;DHT22;10677;50.942;4.028;2024-01-25T15:00:07;12.20;99.90
21037;DHT22;10677;50.942;4.028;2024-01-25T15:02:34;12.20;99.90
21037;DHT22;10677;50.942;4.028;2024-01-25T15:05:02;12.20;99.90
21037;DHT22;10677;50.942;4.028;2024-01-25T15:07:28;12.30;99.90
21037;DHT22;10677;50.942;4.028;2024-01-25T15:09:57;12.30;99.90
21037;DHT22;10677;50.942;4.028;2024-01-25T15:12:23;12.30;99.90
21037;DHT22;10677;50.942;4.028;2024-01-25T15:14:51;12.40;99.90
21037;DHT22;10677;50.942;4.028;2024-01-25T15:17:17;12.50;99.90
21037;DHT22;10677;50.942;4.028;2024-01-25T15:19:43;12.40;99.90
21037;DHT22;10677;50.942;4.028;2024-01-25T15:22:09;12.40;99.90
21037;DHT22;10677;50.942;4.028;2024-01-25T15:24:35;12.40;99.90
21037;DHT22;10677;50.942;4.028;2024-01-25T15:27:01;12.40;99.90
21037;DHT22;10677;50.942;4.028;2024-01-25T15:29:27;12.30;99.90
21037;DHT22;10677;50.942;4.028;2024-01-25T15:31:52;12.40;99.90
21037;DHT22;10677;50.942;4.028;2024-01-25T15:34:18;12.40;99.90
21037;DHT22;10677;50.942;4.028;2024-01-25T15:36:44;12.40;99.90
21037;DHT22;10677;50.942;4.028;2024-01-25T15:39:10;12.40;99.90